sensor_id;sensor_type;location;lat;lon;timestamp;P1;durP1;ratioP1;P2;durP2;ratioP2
41556;SDS011;27720;51.992;5.890;2022-10-31T19:33:11;14.63;;;6.93;;
41556;SDS011;27720;51.992;5.890;2022-10-31T19:35:36;16.75;;;7.78;;
41556;SDS011;27720;51.992;5.890;2022-10-31T19:38:03;17.83;;;8.10;;
41556;SDS011;27720;51.992;5.890;2022-10-31T19:40:29;19.33;;;7.57;;
41556;SDS011;27720;51.992;5.890;2022-10-31T19:42:57;13.57;;;6.93;;
41556;SDS011;27720;51.992;5.890;2022-10-31T19:45:22;13.57;;;6.95;;
41556;SDS011;27720;51.992;5.890;2022-10-31T19:47:48;14.30;;;6.88;;
41556;SDS011;27720;51.992;5.890;2022-10-31T19:50:14;17.25;;;6.97;;
41556;SDS011;27720;51.992;5.890;2022-10-31T19:52:39;17.48;;;6.63;;
41556;SDS011;27720;51.992;5.890;2022-10-31T19:55:09;13.82;;;7.38;;
41556;SDS011;27720;51.992;5.890;2022-10-31T19:57:34;12.93;;;6.57;;
41556;SDS011;27720;51.992;5.890;2022-10-31T20:00:01;12.52;;;5.97;;
41556;SDS011;27720;51.992;5.890;2022-10-31T20:02:36;13.88;;;6.53;;
41556;SDS011;27720;51.992;5.890;2022-10-31T20:05:02;12.55;;;6.13;;
41556;SDS011;27720;51.992;5.890;2022-10-31T20:07:28;11.35;;;6.13;;
41556;SDS011;27720;51.992;5.890;2022-10-31T20:09:54;11.20;;;4.95;;
41556;SDS011;27720;51.992;5.890;2022-10-31T20:12:20;11.18;;;5.63;;
41556;SDS011;27720;51.992;5.890;2022-10-31T20:14:47;9.40;;;5.28;;
41556;SDS011;27720;51.992;5.890;2022-10-31T20:17:13;9.85;;;4.85;;
41556;SDS011;27720;51.992;5.890;2022-10-31T20:19:39;9.10;;;4.72;;
41556;SDS011;27720;51.992;5.890;2022-10-31T20:22:05;9.38;;;4.85;;
41556;SDS011;27720;51.992;5.890;2022-10-31T20:24:31;8.38;;;4.90;;
41556;SDS011;27720;51.992;5.890;2022-10-31T20:26:57;10.68;;;4.60;;
41556;SDS011;27720;51.992;5.890;2022-10-31T20:29:23;9.52;;;4.45;;
41556;SDS011;27720;51.992;5.890;2022-10-31T20:31:49;14.48;;;4.90;;
41556;SDS011;27720;51.992;5.890;2022-10-31T20:34:14;8.18;;;4.53;;
41556;SDS011;27720;51.992;5.890;2022-10-31T20:36:40;10.73;;;4.25;;
41556;SDS011;27720;51.992;5.890;2022-10-31T20:39:07;7.43;;;4.47;;
41556;SDS011;27720;51.992;5.890;2022-10-31T20:41:37;13.60;;;4.82;;
41556;SDS011;27720;51.992;5.890;2022-10-31T20:44:04;7.13;;;4.05;;
41556;SDS011;27720;51.992;5.890;2022-10-31T20:46:33;9.32;;;4.55;;
41556;SDS011;27720;51.992;5.890;2022-10-31T20:48:58;11.02;;;4.60;;
41556;SDS011;27720;51.992;5.890;2022-10-31T20:51:25;7.75;;;4.28;;
41556;SDS011;27720;51.992;5.890;2022-10-31T20:53:52;12.43;;;5.28;;
41556;SDS011;27720;51.992;5.890;2022-10-31T20:56:21;10.43;;;5.43;;
41556;SDS011;27720;51.992;5.890;2022-10-31T20:58:52;9.20;;;4.40;;
41556;SDS011;27720;51.992;5.890;2022-10-31T21:03:46;9.85;;;4.60;;
41556;SDS011;27720;51.992;5.890;2022-10-31T21:06:12;9.57;;;4.70;;
41556;SDS011;27720;51.992;5.890;2022-10-31T21:08:39;9.05;;;3.95;;
41556;SDS011;27720;51.992;5.890;2022-10-31T21:11:07;11.63;;;4.50;;
41556;SDS011;27720;51.992;5.890;2022-10-31T21:13:41;10.30;;;4.13;;
41556;SDS011;27720;51.992;5.890;2022-10-31T21:16:11;10.43;;;4.10;;
41556;SDS011;27720;51.992;5.890;2022-10-31T21:18:45;8.45;;;3.95;;
41556;SDS011;27720;51.992;5.890;2022-10-31T21:21:14;9.77;;;4.30;;
41556;SDS011;27720;51.992;5.890;2022-10-31T21:23:42;6.75;;;4.05;;
41556;SDS011;27720;51.992;5.890;2022-10-31T21:26:10;12.07;;;3.95;;
41556;SDS011;27720;51.992;5.890;2022-10-31T21:28:42;7.15;;;3.75;;
41556;SDS011;27720;51.992;5.890;2022-10-31T21:31:09;7.90;;;3.67;;
41556;SDS011;27720;51.992;5.890;2022-10-31T21:33:38;12.50;;;3.88;;
41556;SDS011;27720;51.992;5.890;2022-10-31T21:36:04;7.47;;;4.00;;
41556;SDS011;27720;51.992;5.890;2022-10-31T21:38:31;5.93;;;3.03;;
41556;SDS011;27720;51.992;5.890;2022-10-31T21:41:02;5.68;;;3.22;;
41556;SDS011;27720;51.992;5.890;2022-10-31T21:45:54;5.22;;;3.10;;
41556;SDS011;27720;51.992;5.890;2022-10-31T21:48:20;7.35;;;3.20;;
41556;SDS011;27720;51.992;5.890;2022-10-31T21:50:46;4.47;;;2.88;;
41556;SDS011;27720;51.992;5.890;2022-10-31T21:53:11;8.57;;;3.65;;
41556;SDS011;27720;51.992;5.890;2022-10-31T21:56:00;6.35;;;3.30;;
41556;SDS011;27720;51.992;5.890;2022-10-31T21:58:27;6.97;;;2.97;;
41556;SDS011;27720;51.992;5.890;2022-10-31T22:00:53;5.10;;;2.85;;
41556;SDS011;27720;51.992;5.890;2022-10-31T22:03:19;6.35;;;3.10;;
41556;SDS011;27720;51.992;5.890;2022-10-31T22:05:45;6.95;;;3.53;;
41556;SDS011;27720;51.992;5.890;2022-10-31T22:08:10;7.72;;;3.28;;
41556;SDS011;27720;51.992;5.890;2022-10-31T22:10:36;4.72;;;3.03;;
41556;SDS011;27720;51.992;5.890;2022-10-31T22:13:02;4.95;;;3.13;;
41556;SDS011;27720;51.992;5.890;2022-10-31T22:15:27;10.05;;;3.80;;
41556;SDS011;27720;51.992;5.890;2022-10-31T22:17:53;8.55;;;3.83;;
41556;SDS011;27720;51.992;5.890;2022-10-31T22:20:19;7.18;;;3.40;;
41556;SDS011;27720;51.992;5.890;2022-10-31T22:22:46;5.75;;;3.08;;
41556;SDS011;27720;51.992;5.890;2022-10-31T22:25:14;6.68;;;3.42;;
41556;SDS011;27720;51.992;5.890;2022-10-31T22:27:40;6.82;;;3.28;;
41556;SDS011;27720;51.992;5.890;2022-10-31T22:30:06;8.73;;;2.60;;
41556;SDS011;27720;51.992;5.890;2022-10-31T22:32:33;4.80;;;2.65;;
41556;SDS011;27720;51.992;5.890;2022-10-31T22:35:02;9.27;;;3.25;;
41556;SDS011;27720;51.992;5.890;2022-10-31T22:37:28;8.02;;;3.28;;
41556;SDS011;27720;51.992;5.890;2022-10-31T22:39:53;7.07;;;3.25;;
41556;SDS011;27720;51.992;5.890;2022-10-31T22:42:20;6.72;;;3.05;;
41556;SDS011;27720;51.992;5.890;2022-10-31T22:44:46;5.72;;;3.20;;
41556;SDS011;27720;51.992;5.890;2022-10-31T22:47:11;5.38;;;3.20;;
41556;SDS011;27720;51.992;5.890;2022-10-31T22:49:37;8.55;;;2.85;;
41556;SDS011;27720;51.992;5.890;2022-10-31T22:52:03;5.22;;;3.13;;
41556;SDS011;27720;51.992;5.890;2022-10-31T22:54:29;5.63;;;3.10;;
41556;SDS011;27720;51.992;5.890;2022-10-31T22:56:56;8.63;;;3.15;;
41556;SDS011;27720;51.992;5.890;2022-10-31T22:59:21;4.70;;;2.63;;
41556;SDS011;27720;51.992;5.890;2022-10-31T23:01:50;5.43;;;2.97;;
41556;SDS011;27720;51.992;5.890;2022-10-31T23:04:15;6.75;;;2.95;;
41556;SDS011;27720;51.992;5.890;2022-10-31T23:06:41;6.47;;;2.72;;
41556;SDS011;27720;51.992;5.890;2022-10-31T23:09:09;7.43;;;2.85;;
41556;SDS011;27720;51.992;5.890;2022-10-31T23:11:38;8.35;;;3.03;;
41556;SDS011;27720;51.992;5.890;2022-10-31T23:14:06;8.23;;;3.17;;
41556;SDS011;27720;51.992;5.890;2022-10-31T23:19:08;8.52;;;3.00;;
41556;SDS011;27720;51.992;5.890;2022-10-31T23:21:36;5.47;;;3.15;;
41556;SDS011;27720;51.992;5.890;2022-10-31T23:24:36;7.18;;;2.40;;
41556;SDS011;27720;51.992;5.890;2022-10-31T23:27:15;5.38;;;2.78;;
41556;SDS011;27720;51.992;5.890;2022-10-31T23:34:42;7.40;;;2.97;;
41556;SDS011;27720;51.992;5.890;2022-10-31T23:37:08;4.93;;;2.45;;
41556;SDS011;27720;51.992;5.890;2022-10-31T23:39:35;6.20;;;3.17;;
41556;SDS011;27720;51.992;5.890;2022-10-31T23:42:01;7.82;;;2.85;;
41556;SDS011;27720;51.992;5.890;2022-10-31T23:44:26;6.47;;;3.08;;
41556;SDS011;27720;51.992;5.890;2022-10-31T23:46:53;7.68;;;2.80;;
41556;SDS011;27720;51.992;5.890;2022-10-31T23:49:18;4.60;;;2.60;;
41556;SDS011;27720;51.992;5.890;2022-10-31T23:51:47;4.95;;;2.92;;
41556;SDS011;27720;51.992;5.890;2022-10-31T23:54:57;6.45;;;3.05;;
41556;SDS011;27720;51.992;5.890;2022-10-31T23:57:23;5.35;;;2.65;;
41556;SDS011;27720;51.992;5.890;2022-10-31T23:59:49;8.52;;;3.63;;
